EDFH METAR and TAF | Updated Today

EDFH METAR

Frankfurt-Hahn Airport

Observation time: 34 min. ago

EDFH 251950Z 26009KT CAVOK 14/06 Q1019

Need help? Read our tutorial on how to read METARs or read the parsed version below.

Frankfurt-Hahn Airport (EDFH) METAR

  • Weather conditions on Wed, 25 May 2022 19:50:00 +0000 (34 min. ago):
  • Present conditions: Dry
  • Clouds: Clear skies
  • Visibility: Greater than 10 km
  • Wind: 260 degrees at 9 knots
  • Temperature: 14 celsius
  • Dew point: 6 celsius
  • Pressure: 1019 millibars
  • Remarks: None


Useful to know...

EDFH TAF

Frankfurt-Hahn Airport

TAF EDFH 251700Z 2518/2618 25010KT 9999 FEW045 BECMG 2518/2520 23005KT TEMPO 2603/2609 BKN014 BECMG 2606/2609 25010KT
Observation time: 3:24 hr. ago
Need help? Read our tutorial on how to read TAFs or read the parsed version below.

Parsed version of TAF for Frankfurt-Hahn Airport (EDFH)

  • From 25 May at 18:00 UTC, to day 26 of the month at 18:00 UTC
  • Clouds: A few at 1372 meters
  • Visibility: Greater than 10 km
  • Wind: 250 degrees at 10
  • Expected to arise soon, from 25 May at 18:00 UTC, to day 25 of the month at 20:00 UTC
  • Wind: 230 degrees at 5
  • Expected to arise temporarily, from 26 May at 03:00 UTC, to day 26 of the month at 09:00 UTC
  • Clouds: Broken sky at 427 meters
  • Expected to arise soon, from 26 May at 06:00 UTC, to day 26 of the month at 09:00 UTC
  • Wind: 250 degrees at 10